Time;durP1;ratioP1;P1;durP2;ratioP2;P2;SDS_P1;SDS_P2;PMS_P1;PMS_P2;Temp;Humidity;BMP_temperature;BMP_pressure;BME280_temperature;BME280_humidity;BME280_pressure;Samples;Min_cycle;Max_cycle;Signal;HPM_P1;HPM_P2
2021/05/11 00:02:10;;;;;;;6.03;5.43;;;;;;;16.76;79.74;100209.19;5032589;28;20825;-87
2021/05/11 00:04:36;;;;;;;6.63;5.93;;;;;;;16.77;79.86;100192.06;5032918;28;20229;-86
2021/05/11 00:07:04;;;;;;;6.60;5.37;;;;;;;16.76;79.69;100196.59;5032364;28;20228;-87
2021/05/11 00:09:30;;;;;;;5.83;5.23;;;;;;;16.74;79.64;100201.28;5033182;28;20212;-86
2021/05/11 00:11:56;;;;;;;5.57;5.07;;;;;;;16.73;79.68;100193.34;5028151;28;20570;-86
2021/05/11 00:14:22;;;;;;;5.83;5.33;;;;;;;16.72;79.62;100180.91;5030496;28;20223;-85
2021/05/11 00:16:48;;;;;;;8.03;6.07;;;;;;;16.67;79.74;100155.28;5025345;28;20535;-85
2021/05/11 00:19:15;;;;;;;5.97;5.43;;;;;;;16.64;79.55;100193.25;5032993;28;20241;-84
2021/05/11 00:21:41;;;;;;;5.90;5.30;;;;;;;16.61;79.95;100222.25;5033478;28;20342;-85
2021/05/11 00:24:09;;;;;;;6.77;6.07;;;;;;;16.58;80.02;100185.75;5033255;28;20272;-85
2021/05/11 00:26:38;;;;;;;6.93;6.23;;;;;;;16.56;79.83;100170.75;5030434;28;20237;-87
2021/05/11 00:29:04;;;;;;;6.60;6.00;;;;;;;16.55;80.60;100195.94;5032682;28;20215;-86
2021/05/11 00:31:30;;;;;;;8.33;5.90;;;;;;;16.53;80.33;100214.91;5031647;28;20198;-87
2021/05/11 00:33:56;;;;;;;6.83;6.13;;;;;;;16.53;80.50;100233.72;5031754;28;20239;-87
2021/05/11 00:36:22;;;;;;;6.63;5.90;;;;;;;16.54;80.46;100191.53;5033280;28;20555;-87
2021/05/11 00:38:48;;;;;;;6.93;6.23;;;;;;;16.50;80.13;100163.25;5033291;28;20609;-85
2021/05/11 00:41:15;;;;;;;6.97;6.30;;;;;;;16.48;80.52;100176.03;5032650;28;20212;-85
2021/05/11 00:43:42;;;;;;;6.20;5.60;;;;;;;16.47;80.65;100182.41;5033959;28;20217;-85
2021/05/11 00:46:09;;;;;;;6.63;6.07;;;;;;;16.46;80.76;100178.84;5033862;28;20208;-85
2021/05/11 00:48:35;;;;;;;6.07;5.57;;;;;;;16.46;80.47;100178.84;5032189;28;20221;-85
2021/05/11 00:51:03;;;;;;;6.93;6.13;;;;;;;16.47;80.65;100172.50;5026337;28;20552;-84
2021/05/11 00:53:29;;;;;;;6.40;5.90;;;;;;;16.48;80.73;100168.78;5031107;28;20224;-85
2021/05/11 00:55:56;;;;;;;6.10;5.60;;;;;;;16.49;80.46;100166.94;5032423;28;20539;-84
2021/05/11 00:58:23;;;;;;;6.30;5.70;;;;;;;16.50;80.55;100150.66;5032104;28;20199;-85
2021/05/11 01:00:49;;;;;;;6.60;5.90;;;;;;;16.52;80.47;100156.75;5030439;28;20840;-85
2021/05/11 01:03:15;;;;;;;6.60;6.00;;;;;;;16.54;80.53;100154.75;5030349;28;20286;-85
2021/05/11 01:05:41;;;;;;;8.20;7.40;;;;;;;16.55;80.29;100159.16;5032506;28;20208;-89
2021/05/11 01:08:08;;;;;;;9.10;8.20;;;;;;;16.54;80.49;100151.22;5031186;28;20310;-88
2021/05/11 01:10:34;;;;;;;8.40;7.60;;;;;;;16.52;80.22;100148.69;5031999;28;20222;-90
2021/05/11 01:13:00;;;;;;;8.93;8.13;;;;;;;16.49;80.41;100145.44;5032376;28;20210;-89
2021/05/11 01:15:28;;;;;;;8.53;7.73;;;;;;;16.47;80.32;100145.59;5032031;28;20230;-88
2021/05/11 01:18:00;;;;;;;8.40;7.57;;;;;;;16.46;80.21;100138.53;5032397;28;20234;-89
2021/05/11 01:20:30;;;;;;;10.13;9.30;;;;;;;16.46;80.47;100141.22;5030939;28;20206;-88
2021/05/11 01:23:14;;;;;;;10.07;9.07;;;;;;;16.47;80.39;100126.78;5024847;28;20298;-87
2021/05/11 01:25:41;;;;;;;11.60;10.50;;;;;;;16.47;80.59;100123.25;5031081;28;20203;-88
2021/05/11 01:28:14;;;;;;;10.30;9.30;;;;;;;16.43;80.40;100120.00;5031033;28;20234;-86
2021/05/11 01:45:01;;;;;;;12.37;11.17;;;;;;;16.35;80.58;100130.63;5031461;28;20245;-89
2021/05/11 01:50:19;;;;;;;11.37;10.37;;;;;;;16.37;80.90;100123.28;5001122;28;20861;-87
2021/05/11 02:22:49;;;;;;;11.57;10.57;;;;;;;16.27;81.15;100106.34;5030567;28;20226;-85
2021/05/11 02:25:16;;;;;;;11.13;10.13;;;;;;;16.27;81.06;100109.03;5028790;28;20222;-84
2021/05/11 02:27:44;;;;;;;11.10;10.10;;;;;;;16.25;80.93;100108.34;5031623;28;20322;-85
2021/05/11 02:30:11;;;;;;;12.83;11.73;;;;;;;16.24;81.10;100117.38;5031359;28;20554;-87
2021/05/11 02:32:38;;;;;;;13.97;12.60;;;;;;;16.24;81.35;100130.81;5030344;28;20219;-87
2021/05/11 02:35:06;;;;;;;13.10;11.70;;;;;;;16.24;81.55;100128.97;5031299;28;20230;-87
2021/05/11 02:37:32;;;;;;;13.43;12.10;;;;;;;16.25;81.43;100130.69;5031430;28;20201;-87
2021/05/11 02:39:58;;;;;;;13.47;12.23;;;;;;;16.25;81.62;100128.00;5031512;28;20211;-87
2021/05/11 02:42:26;;;;;;;12.87;11.67;;;;;;;16.24;81.58;100123.59;5030332;28;20221;-88
2021/05/11 02:44:54;;;;;;;13.17;11.97;;;;;;;16.22;81.42;100120.22;5031682;28;20693;-87
2021/05/11 02:47:20;;;;;;;13.87;12.73;;;;;;;16.19;81.51;100125.03;5030941;28;20262;-87
2021/05/11 02:49:49;;;;;;;13.90;12.63;;;;;;;16.16;81.48;100128.84;5031677;28;20570;-88
2021/05/11 02:52:15;;;;;;;14.33;13.03;;;;;;;16.17;81.68;100121.63;5029953;28;20208;-87
2021/05/11 02:54:41;;;;;;;14.23;12.90;;;;;;;16.13;81.49;100113.03;5031069;28;20245;-87
2021/05/11 02:57:08;;;;;;;14.47;13.17;;;;;;;16.12;81.91;100105.94;5032783;28;20656;-88
2021/05/11 02:59:35;;;;;;;15.73;14.13;;;;;;;16.11;81.86;100112.34;5033691;28;20244;-87
2021/05/11 03:02:02;;;;;;;16.00;14.40;;;;;;;16.11;82.01;100117.72;5034185;28;20206;-86
2021/05/11 03:04:30;;;;;;;14.37;13.07;;;;;;;16.09;81.82;100132.28;5034165;28;20232;-87
2021/05/11 03:06:57;;;;;;;15.13;13.63;;;;;;;16.08;81.87;100138.66;5035067;28;20591;-87
2021/05/11 03:09:24;;;;;;;15.63;14.13;;;;;;;16.07;81.85;100136.94;5034478;28;20729;-86
2021/05/11 03:11:50;;;;;;;15.70;14.20;;;;;;;16.07;81.85;100134.25;5034136;28;20213;-87
2021/05/11 03:14:16;;;;;;;15.30;13.90;;;;;;;16.03;82.26;100147.13;5034300;28;20248;-87
2021/05/11 03:16:43;;;;;;;16.87;14.90;;;;;;;16.02;82.01;100144.59;5034469;28;20288;-87
2021/05/11 03:19:10;;;;;;;16.23;14.37;;;;;;;16.00;82.41;100136.66;5033884;28;20203;-88
2021/05/11 03:21:36;;;;;;;15.97;14.47;;;;;;;15.98;82.29;100138.66;5033820;28;20207;-92
2021/05/11 03:24:02;;;;;;;16.17;14.67;;;;;;;15.95;82.31;100134.41;5037772;28;20233;-90
2021/05/11 03:26:28;;;;;;;15.63;14.03;;;;;;;15.95;82.48;100136.25;5036258;28;20724;-90
2021/05/11 03:28:54;;;;;;;15.77;14.23;;;;;;;15.92;82.41;100144.63;5036944;28;20248;-90
2021/05/11 03:31:21;;;;;;;16.73;14.77;;;;;;;15.92;82.63;100147.31;5034597;28;20293;-85
2021/05/11 03:33:48;;;;;;;13.57;12.33;;;;;;;15.90;82.88;100139.38;5034684;28;20295;-90
2021/05/11 03:36:15;;;;;;;16.33;14.70;;;;;;;15.88;82.64;100130.63;5039271;28;20206;-91
2021/05/11 03:38:43;;;;;;;14.73;12.97;;;;;;;15.87;82.46;100131.59;5035020;28;20210;-91
2021/05/11 03:41:09;;;;;;;14.50;13.17;;;;;;;15.86;82.81;100129.06;5034371;28;20240;-91
2021/05/11 03:43:44;;;;;;;14.83;13.43;;;;;;;15.85;82.91;100127.38;5033792;28;20226;-91
2021/05/11 03:46:11;;;;;;;15.63;14.13;;;;;;;15.83;82.66;100119.44;5033840;28;20202;-88
2021/05/11 03:48:37;;;;;;;14.37;12.97;;;;;;;15.82;82.55;100120.44;5033506;28;20237;-86
2021/05/11 03:51:06;;;;;;;15.03;13.53;;;;;;;15.82;82.72;100120.44;5033229;28;20202;-86
2021/05/11 03:53:33;;;;;;;15.37;13.87;;;;;;;15.81;82.59;100124.13;5033329;28;20234;-86
2021/05/11 03:55:59;;;;;;;15.60;14.10;;;;;;;15.81;82.65;100126.81;5026614;28;20297;-86
2021/05/11 03:58:25;;;;;;;14.70;13.27;;;;;;;15.82;82.81;100131.19;5033365;28;20721;-86
2021/05/11 04:00:51;;;;;;;16.17;13.97;;;;;;;15.83;82.77;100132.03;5033425;28;20299;-86
2021/05/11 04:03:18;;;;;;;15.70;14.20;;;;;;;15.84;82.76;100131.03;5032614;28;20212;-86
2021/05/11 04:05:44;;;;;;;15.80;14.37;;;;;;;15.84;82.87;100134.56;5033295;28;20672;-86
2021/05/11 04:08:15;;;;;;;16.60;14.90;;;;;;;15.85;82.70;100127.38;5023941;28;20309;-86
2021/05/11 04:10:45;;;;;;;16.67;15.03;;;;;;;15.84;82.52;100125.66;5033035;28;20206;-85
2021/05/11 04:13:34;;;;;;;18.17;16.30;;;;;;;15.82;82.79;100125.81;5032960;28;20316;-85
2021/05/11 04:16:19;;;;;;;17.83;16.03;;;;;;;15.82;82.79;100120.44;5031947;28;20210;-86
2021/05/11 04:18:46;;;;;;;18.37;16.47;;;;;;;15.80;82.78;100102.78;5032857;28;20202;-85
2021/05/11 04:21:12;;;;;;;17.63;15.87;;;;;;;15.80;82.66;100082.16;5031265;28;20221;-86
2021/05/11 04:23:38;;;;;;;18.60;16.77;;;;;;;15.79;82.65;100066.19;5032107;28;20226;-85
2021/05/11 04:26:05;;;;;;;18.63;16.93;;;;;;;15.77;82.99;100078.91;5030573;28;20205;-85
2021/05/11 04:28:31;;;;;;;17.87;16.07;;;;;;;15.77;83.02;100089.63;5032483;28;20219;-84
2021/05/11 04:31:00;;;;;;;18.43;16.50;;;;;;;15.76;82.96;100088.81;5032567;28;20713;-85
2021/05/11 04:33:26;;;;;;;16.90;14.80;;;;;;;15.74;82.97;100090.78;5029921;28;20210;-85
2021/05/11 04:35:53;;;;;;;16.53;14.97;;;;;;;15.72;83.19;100073.97;5032083;28;20217;-85
2021/05/11 04:38:19;;;;;;;16.03;14.33;;;;;;;15.70;82.94;100075.97;5032727;28;20194;-85
2021/05/11 04:40:45;;;;;;;14.83;13.43;;;;;;;15.68;83.00;100072.56;5033017;28;20328;-85
2021/05/11 04:43:12;;;;;;;14.30;12.90;;;;;;;15.68;83.17;100085.13;5029502;28;20210;-85
2021/05/11 04:45:38;;;;;;;14.47;13.07;;;;;;;15.67;83.10;100080.75;5032925;28;20294;-85
2021/05/11 04:48:05;;;;;;;13.00;11.70;;;;;;;15.65;83.08;100078.22;5029705;28;20732;-85
2021/05/11 04:50:31;;;;;;;13.10;11.90;;;;;;;15.63;83.02;100075.69;5027016;28;21058;-85
2021/05/11 04:52:57;;;;;;;13.10;11.90;;;;;;;15.61;83.01;100082.16;5030470;28;20212;-85
2021/05/11 04:55:24;;;;;;;12.77;11.53;;;;;;;15.60;83.18;100080.47;5032236;28;20230;-86
2021/05/11 04:57:50;;;;;;;13.47;12.17;;;;;;;15.57;83.16;100070.91;5030691;28;20206;-86
2021/05/11 05:00:18;;;;;;;11.80;10.57;;;;;;;15.54;82.75;100068.47;5029995;28;20207;-87
2021/05/11 05:02:46;;;;;;;11.57;10.47;;;;;;;15.50;82.63;100074.25;5030939;28;20241;-86
2021/05/11 05:05:13;;;;;;;11.07;10.00;;;;;;;15.48;82.85;100073.53;5030095;28;20230;-85
2021/05/11 05:07:39;;;;;;;11.13;10.03;;;;;;;15.46;82.88;100078.19;5029268;28;20226;-85
2021/05/11 05:10:07;;;;;;;10.77;9.63;;;;;;;15.42;82.84;100088.38;5031790;28;20816;-85
2021/05/11 05:12:34;;;;;;;10.77;9.67;;;;;;;15.39;82.99;100082.47;5032570;28;20194;-85
2021/05/11 05:15:00;;;;;;;12.57;9.57;;;;;;;15.37;82.54;100074.56;5031676;28;20293;-85
2021/05/11 05:17:27;;;;;;;14.77;10.07;;;;;;;15.37;82.89;100081.75;5029992;28;20348;-85
2021/05/11 05:19:53;;;;;;;11.33;10.13;;;;;;;15.36;82.85;100078.22;5027622;28;20210;-85
2021/05/11 05:22:19;;;;;;;10.80;9.70;;;;;;;15.36;82.94;100074.69;5031559;28;20289;-85
2021/05/11 05:24:48;;;;;;;10.77;9.67;;;;;;;15.35;82.62;100073.00;5031477;28;20302;-85
2021/05/11 05:27:19;;;;;;;9.80;8.90;;;;;;;15.34;82.62;100069.47;5031758;28;20226;-85
2021/05/11 05:29:45;;;;;;;10.60;9.30;;;;;;;15.32;82.70;100062.53;5031041;28;20198;-85
2021/05/11 05:32:11;;;;;;;11.77;8.57;;;;;;;15.30;82.99;100062.69;5031240;28;20264;-84
2021/05/11 05:34:38;;;;;;;8.50;7.67;;;;;;;15.28;82.90;100065.50;5031321;28;20229;-84
2021/05/11 05:37:04;;;;;;;7.00;6.30;;;;;;;15.25;82.75;100059.56;5031058;28;20657;-84
2021/05/11 05:39:34;;;;;;;7.80;7.10;;;;;;;15.23;82.73;100058.84;5031911;28;20198;-85
2021/05/11 05:42:00;;;;;;;7.33;6.63;;;;;;;15.18;82.58;100048.56;5027235;28;20211;-85
2021/05/11 05:44:26;;;;;;;7.50;6.23;;;;;;;15.14;82.45;100055.19;5028646;28;20222;-84
2021/05/11 05:46:53;;;;;;;5.83;5.30;;;;;;;15.09;82.07;100070.84;5031022;28;20222;-86
2021/05/11 05:49:19;;;;;;;6.50;5.83;;;;;;;15.04;82.02;100078.50;5030959;28;20243;-86
2021/05/11 05:51:48;;;;;;;5.87;4.73;;;;;;;15.02;81.86;100075.09;5030301;28;20245;-86
2021/05/11 05:54:14;;;;;;;5.53;3.80;;;;;;;15.00;81.42;100069.03;5031485;28;20684;-86
2021/05/11 05:56:41;;;;;;;5.03;4.10;;;;;;;14.97;81.35;100060.41;5030890;28;20206;-87
2021/05/11 05:59:07;;;;;;;3.87;3.47;;;;;;;14.96;81.29;100054.19;5028838;28;20209;-86
2021/05/11 06:01:33;;;;;;;4.57;3.80;;;;;;;14.97;81.07;100071.13;5029448;28;20573;-84
2021/05/11 06:04:07;;;;;;;4.57;4.00;;;;;;;14.95;80.42;100065.91;5030722;28;20222;-84
2021/05/11 06:06:33;;;;;;;5.20;4.63;;;;;;;14.95;80.44;100052.50;5031004;28;20644;-84
2021/05/11 06:09:00;;;;;;;5.10;4.50;;;;;;;15.01;80.56;100051.09;5031151;28;20241;-84
2021/05/11 06:11:34;;;;;;;6.47;5.40;;;;;;;15.03;80.53;100052.66;5029127;28;20238;-82
2021/05/11 06:14:09;;;;;;;8.60;5.53;;;;;;;15.07;80.38;100042.47;5030570;28;20233;-82
2021/05/11 06:19:20;;;;;;;6.90;6.00;;;;;;;15.11;80.73;100039.38;5030370;28;20201;-82
2021/05/11 06:21:47;;;;;;;6.70;5.87;;;;;;;15.15;80.77;100038.13;5029518;28;21066;-82
2021/05/11 06:24:13;;;;;;;6.73;6.03;;;;;;;15.19;81.05;100038.69;5032194;28;20230;-82
2021/05/11 06:26:39;;;;;;;6.00;5.40;;;;;;;15.20;81.02;100048.44;5031534;28;20653;-84
2021/05/11 06:29:08;;;;;;;6.87;5.27;;;;;;;15.21;80.86;100047.44;5031709;28;20209;-84
2021/05/11 06:31:34;;;;;;;6.23;5.63;;;;;;;15.20;80.52;100041.22;5030389;28;20576;-84
2021/05/11 06:34:01;;;;;;;4.93;4.53;;;;;;;15.21;80.54;100055.50;5033803;28;20242;-84
2021/05/11 06:36:27;;;;;;;6.30;5.10;;;;;;;15.20;80.78;100057.31;5034869;28;20289;-84
2021/05/11 06:38:53;;;;;;;5.30;4.80;;;;;;;15.21;80.11;100050.97;5035233;28;20617;-84
2021/05/11 06:41:20;;;;;;;5.87;4.63;;;;;;;15.17;80.00;100035.28;5036391;28;20283;-84
2021/05/11 06:43:47;;;;;;;8.13;5.43;;;;;;;15.17;79.96;100049.56;5037255;28;20214;-84
2021/05/11 06:49:14;;;;;;;5.27;4.77;;;;;;;15.25;79.51;100079.19;5026691;28;20233;-81
2021/05/11 06:54:24;;;;;;;7.50;4.40;;;;;;;15.35;78.84;100100.66;5038079;28;20225;-80
2021/05/11 06:56:51;;;;;;;4.47;3.80;;;;;;;15.39;78.37;100110.13;5039253;28;20206;-81
2021/05/11 06:59:17;;;;;;;4.00;3.60;;;;;;;15.39;78.17;100098.56;5052427;28;20212;-81
2021/05/11 07:01:43;;;;;;;5.83;3.47;;;;;;;15.40;77.96;100086.84;5039698;28;20273;-81
2021/05/11 07:04:09;;;;;;;6.67;3.90;;;;;;;15.42;77.38;100090.19;5038057;28;20226;-81
2021/05/11 07:06:37;;;;;;;4.30;3.53;;;;;;;15.44;77.66;100085.53;5040044;28;20573;-81
2021/05/11 07:09:07;;;;;;;6.20;4.10;;;;;;;15.46;77.37;100088.94;5039488;28;20665;-81
2021/05/11 07:13:09;;;;;;;5.80;4.00;;;;;;;15.47;76.93;100078.06;5040151;28;20233;-81
2021/05/11 07:14:21;;;;;;;6.17;4.00;;;;;;;15.50;76.96;100064.38;5040480;28;20222;-80
2021/05/11 07:16:47;;;;;;;5.93;4.70;;;;;;;15.57;77.23;100056.63;5038779;28;20445;-80
2021/05/11 07:19:13;;;;;;;5.33;4.83;;;;;;;15.60;77.05;100069.75;5037382;28;20289;-78
2021/05/11 07:21:39;;;;;;;7.27;4.17;;;;;;;15.61;77.43;100055.31;5038075;28;20562;-79
2021/05/11 07:24:06;;;;;;;5.50;4.70;;;;;;;15.67;77.31;100054.75;5051613;22;20235;-72
2021/05/11 07:26:33;;;;;;;4.80;4.33;;;;;;;15.70;77.38;100043.75;5043076;28;20299;-75
2021/05/11 07:29:10;;;;;;;4.63;4.23;;;;;;;15.69;77.37;100036.69;5049625;28;20597;-72
2021/05/11 07:31:38;;;;;;;5.67;4.10;;;;;;;15.66;77.24;100014.63;5043193;28;20194;-72
2021/05/11 07:34:06;;;;;;;4.20;3.80;;;;;;;15.63;76.83;100007.72;5048681;28;20368;-72
2021/05/11 07:36:33;;;;;;;4.90;4.03;;;;;;;15.60;77.11;100002.63;5055755;22;20234;-80
2021/05/11 07:39:00;;;;;;;4.57;4.10;;;;;;;15.58;77.02;100001.97;5058825;28;20193;-80
2021/05/11 07:41:26;;;;;;;5.43;4.30;;;;;;;15.58;77.15;100018.06;5057098;28;20288;-81
2021/05/11 07:43:55;;;;;;;5.07;4.30;;;;;;;15.56;77.05;100009.31;5058449;28;20703;-79
2021/05/11 07:46:42;;;;;;;5.03;3.70;;;;;;;15.56;76.76;100009.31;5059731;28;20209;-81
2021/05/11 08:06:13;;;;;;;5.77;3.43;;;;;;;15.68;75.86;100008.13;5057747;28;20186;-81
2021/05/11 08:14:29;;;;;;;4.57;3.77;;;;;;;15.62;75.22;99982.72;5057492;28;20225;-81
2021/05/11 08:16:57;;;;;;;4.33;3.90;;;;;;;15.65;75.27;99978.91;5058390;28;20232;-81
2021/05/11 08:19:42;;;;;;;3.60;3.30;;;;;;;15.65;75.04;99980.72;5057930;28;20197;-81
2021/05/11 08:22:29;;;;;;;4.67;3.93;;;;;;;15.64;74.99;99987.94;5057816;28;20194;-81
2021/05/11 08:27:43;;;;;;;4.60;3.80;;;;;;;15.78;74.62;99995.53;5059476;28;20223;-82
2021/05/11 08:30:11;;;;;;;5.00;3.33;;;;;;;15.85;75.00;99988.59;5057306;28;20210;-81
2021/05/11 08:32:37;;;;;;;3.97;3.27;;;;;;;15.92;74.53;99988.84;5057174;28;20219;-81
2021/05/11 08:35:03;;;;;;;3.77;3.47;;;;;;;16.00;74.82;99990.78;5057315;28;20226;-81
2021/05/11 08:37:30;;;;;;;3.90;3.53;;;;;;;16.07;74.41;99989.22;5056976;28;20209;-81
2021/05/11 08:39:56;;;;;;;6.80;3.77;;;;;;;16.11;74.00;99980.72;5050642;28;20210;-81
2021/05/11 08:42:22;;;;;;;6.27;3.70;;;;;;;16.17;73.83;99979.25;5048119;28;20232;-81
2021/05/11 08:44:48;;;;;;;4.83;3.57;;;;;;;16.19;73.41;99964.69;5050526;28;20214;-81
2021/05/11 08:47:18;;;;;;;5.97;2.97;;;;;;;16.23;72.99;99960.69;5048699;28;20279;-80
2021/05/11 08:49:44;;;;;;;3.00;2.70;;;;;;;16.28;72.75;99962.94;5052684;28;20249;-80
2021/05/11 08:52:16;;;;;;;3.83;2.87;;;;;;;16.27;72.11;99958.56;5044299;28;20261;-82
2021/05/11 08:55:04;;;;;;;3.17;2.87;;;;;;;16.31;71.86;99966.16;5050943;28;20225;-80
2021/05/11 09:06:23;;;;;;;3.23;2.93;;;;;;;16.47;70.93;99992.41;5057649;28;20553;-80
2021/05/11 09:09:14;;;;;;;4.30;2.97;;;;;;;16.54;71.03;99984.56;5056894;28;20234;-81
2021/05/11 09:25:39;;;;;;;3.47;2.37;;;;;;;16.48;69.50;99961.81;5055159;28;20271;-80
2021/05/11 09:28:27;;;;;;;3.37;2.60;;;;;;;16.49;69.71;99993.06;5054699;28;20215;-81
2021/05/11 09:31:01;;;;;;;3.13;2.40;;;;;;;16.52;69.57;99998.16;5054393;28;20672;-80
2021/05/11 09:33:32;;;;;;;3.83;2.37;;;;;;;16.55;69.47;99997.00;5055415;28;20269;-80
2021/05/11 09:56:05;;;;;;;2.30;2.00;;;;;;;16.54;69.13;100014.97;5054464;28;20221;-80
2021/05/11 09:58:51;;;;;;;4.40;2.30;;;;;;;16.55;68.84;100013.97;5055256;28;20194;-80
2021/05/11 10:31:21;;;;;;;3.37;2.30;;;;;;;16.50;67.84;99999.28;5058278;28;20200;-81
2021/05/11 10:39:14;;;;;;;2.50;2.03;;;;;;;16.61;67.33;99982.97;5052243;28;21140;-81
2021/05/11 10:41:53;;;;;;;6.73;2.20;;;;;;;16.62;67.38;99972.06;5054126;28;20385;-82
2021/05/11 10:44:39;;;;;;;4.87;2.17;;;;;;;16.63;67.25;99954.13;5054270;28;20724;-81
2021/05/11 10:47:07;;;;;;;4.80;2.30;;;;;;;16.64;67.16;99937.00;5054180;28;20198;-81
2021/05/11 10:49:36;;;;;;;4.83;1.87;;;;;;;16.63;67.14;99941.53;5049461;28;20641;-81
2021/05/11 10:52:05;;;;;;;4.10;2.40;;;;;;;16.64;67.00;99934.31;5045849;28;20202;-81
2021/05/11 10:54:35;;;;;;;2.57;2.03;;;;;;;16.64;66.96;99945.06;5056190;28;20217;-81
2021/05/11 10:57:04;;;;;;;2.70;2.07;;;;;;;16.63;66.93;99941.53;5055909;28;20215;-82
2021/05/11 11:02:37;;;;;;;4.27;2.20;;;;;;;16.76;67.07;99951.88;5050274;28;20567;-81
2021/05/11 11:05:05;;;;;;;4.67;2.50;;;;;;;16.83;67.07;99952.13;5052976;28;20305;-81
2021/05/11 11:07:33;;;;;;;2.97;2.20;;;;;;;16.85;66.35;99959.03;5053851;28;20232;-81
2021/05/11 11:10:00;;;;;;;3.50;2.20;;;;;;;16.88;66.61;99960.56;5053593;28;20216;-81
2021/05/11 11:12:34;;;;;;;2.80;2.30;;;;;;;16.94;66.24;99951.88;5058401;28;20202;-81
2021/05/11 11:15:03;;;;;;;3.73;2.80;;;;;;;16.98;66.10;99961.34;5057492;28;20223;-82
2021/05/11 11:17:29;;;;;;;3.67;2.70;;;;;;;16.99;65.81;99953.13;5053042;28;20203;-81
2021/05/11 11:20:02;;;;;;;2.73;2.20;;;;;;;17.01;65.62;99947.59;5052287;28;20210;-82
2021/05/11 11:25:14;;;;;;;3.50;2.40;;;;;;;17.02;64.76;99947.41;5051078;28;20234;-84
2021/05/11 11:27:40;;;;;;;3.33;2.20;;;;;;;17.02;64.84;99943.88;5042443;28;20230;-82
2021/05/11 11:30:09;;;;;;;4.27;2.23;;;;;;;17.03;64.79;99953.63;5044592;28;20212;-82
2021/05/11 11:32:35;;;;;;;4.07;2.30;;;;;;;17.02;64.56;99951.94;5045591;28;20203;-83
2021/05/11 11:35:03;;;;;;;2.90;2.27;;;;;;;17.04;64.81;99954.47;5047251;28;20325;-82
2021/05/11 11:37:30;;;;;;;3.93;2.30;;;;;;;17.05;64.90;99962.41;5042764;28;20207;-83
2021/05/11 11:39:59;;;;;;;4.13;2.00;;;;;;;17.08;65.07;99962.09;5044665;28;20204;-82
2021/05/11 11:42:27;;;;;;;3.67;2.20;;;;;;;17.15;64.81;99960.47;5050436;28;20204;-81
2021/05/11 11:44:57;;;;;;;3.63;2.43;;;;;;;17.20;64.84;99963.53;5055853;28;20219;-81
2021/05/11 11:47:24;;;;;;;3.97;2.30;;;;;;;17.21;64.47;99956.28;5056251;28;20598;-82
2021/05/11 11:49:53;;;;;;;3.77;2.30;;;;;;;17.22;64.68;99958.84;5057301;28;20230;-80
2021/05/11 11:52:28;;;;;;;5.60;2.20;;;;;;;17.23;64.63;99949.75;5056042;28;20218;-80
2021/05/11 11:55:15;;;;;;;4.60;2.37;;;;;;;17.28;64.55;99952.00;5055219;28;20346;-82
2021/05/11 11:57:45;;;;;;;6.63;2.77;;;;;;;17.32;64.22;99934.53;5055917;28;20219;-81
2021/05/11 12:00:15;;;;;;;5.10;2.27;;;;;;;17.32;63.98;99931.84;5055993;28;20202;-81
2021/05/11 12:02:53;;;;;;;4.10;2.20;;;;;;;17.34;63.96;99938.75;5056175;28;20210;-81
2021/05/11 12:05:20;;;;;;;3.17;2.40;;;;;;;17.38;63.77;99933.06;5057624;28;20226;-82
2021/05/11 12:08:01;;;;;;;3.20;2.30;;;;;;;17.43;63.65;99928.03;5056546;28;20266;-82
2021/05/11 12:10:29;;;;;;;4.93;2.30;;;;;;;17.46;63.25;99922.34;5056572;28;20405;-81
2021/05/11 12:12:57;;;;;;;3.27;2.23;;;;;;;17.50;63.32;99921.03;5055868;28;21024;-81
2021/05/11 12:15:24;;;;;;;5.23;3.20;;;;;;;17.54;63.15;99908.94;5055512;28;20242;-81
2021/05/11 12:18:02;;;;;;;4.20;2.67;;;;;;;17.59;63.08;99910.13;5055351;28;20255;-82
2021/05/11 12:20:29;;;;;;;4.03;2.97;;;;;;;17.63;62.77;99913.34;5056109;28;20210;-81
2021/05/11 12:23:05;;;;;;;4.03;2.97;;;;;;;17.64;62.77;99915.06;5037925;28;20209;-82
2021/05/11 12:25:32;;;;;;;4.00;3.20;;;;;;;17.68;62.40;99924.53;5054800;28;20225;-83
2021/05/11 12:27:58;;;;;;;4.97;3.10;;;;;;;17.68;62.33;99927.22;5056022;28;20222;-82
2021/05/11 12:30:38;;;;;;;4.60;3.50;;;;;;;17.72;62.42;99933.97;5055524;28;20212;-82
2021/05/11 12:33:07;;;;;;;5.43;3.07;;;;;;;17.75;62.25;99939.03;5056165;28;20619;-82
2021/05/11 12:35:33;;;;;;;5.20;3.53;;;;;;;17.82;62.28;99941.94;5055469;28;20232;-82
2021/05/11 12:38:02;;;;;;;4.30;3.90;;;;;;;17.87;62.09;99948.53;5052242;28;20204;-82
2021/05/11 12:40:51;;;;;;;4.50;4.10;;;;;;;17.93;62.10;99942.47;5050344;28;20570;-83
2021/05/11 12:43:40;;;;;;;5.20;4.77;;;;;;;17.97;61.89;99948.38;5047208;28;20197;-84
2021/05/11 12:46:19;;;;;;;5.77;5.17;;;;;;;17.99;61.55;99946.38;5049418;28;20205;-83
2021/05/11 12:48:56;;;;;;;5.67;4.47;;;;;;;18.03;61.46;99962.06;5052439;28;20226;-84
2021/05/11 12:51:37;;;;;;;4.77;4.37;;;;;;;18.06;61.17;99960.91;5045312;28;20204;-85
2021/05/11 12:54:22;;;;;;;5.27;4.37;;;;;;;18.11;60.96;99965.78;5051186;28;20219;-86
2021/05/11 12:56:59;;;;;;;5.13;4.63;;;;;;;18.15;60.93;99968.00;5043842;28;20207;-84
2021/05/11 12:59:29;;;;;;;5.07;4.57;;;;;;;18.21;60.46;99974.59;5045336;28;20626;-84
2021/05/11 13:02:02;;;;;;;6.00;4.50;;;;;;;18.25;60.44;99974.13;5047652;28;20197;-85
2021/05/11 13:21:31;;;;;;;4.47;2.67;;;;;;;18.44;60.07;99958.69;5044494;28;20258;-84
2021/05/11 13:26:45;;;;;;;2.67;2.07;;;;;;;18.44;60.00;99945.22;5040072;28;20287;-84
2021/05/11 13:29:21;;;;;;;4.50;2.63;;;;;;;18.45;60.07;99946.91;5042822;28;20595;-84
2021/05/11 13:31:51;;;;;;;3.67;2.13;;;;;;;18.46;60.42;99949.41;5043356;28;20212;-84
2021/05/11 13:34:19;;;;;;;5.13;2.40;;;;;;;18.48;60.15;99939.31;5042151;28;20246;-85
2021/05/11 13:36:45;;;;;;;4.20;2.50;;;;;;;18.48;60.00;99933.91;5043647;28;20220;-85
2021/05/11 13:39:12;;;;;;;5.37;2.10;;;;;;;18.44;59.95;99929.88;5039893;28;20204;-84
2021/05/11 13:41:38;;;;;;;3.47;2.10;;;;;;;18.38;59.61;99933.22;5044441;28;20207;-84
2021/05/11 13:44:05;;;;;;;3.80;2.23;;;;;;;18.35;59.80;99931.69;5045429;28;20730;-84
2021/05/11 13:46:32;;;;;;;3.83;2.63;;;;;;;18.34;60.05;99939.94;5050388;28;20269;-83
2021/05/11 13:48:58;;;;;;;3.53;2.23;;;;;;;18.38;60.10;99941.31;5049886;28;20227;-85
2021/05/11 13:51:24;;;;;;;5.37;2.27;;;;;;;18.42;60.20;99953.47;5046850;28;20596;-86
2021/05/11 13:53:54;;;;;;;3.17;2.20;;;;;;;18.43;60.13;99944.38;5046534;28;20296;-85
2021/05/11 13:56:37;;;;;;;2.97;2.00;;;;;;;18.41;60.23;99938.28;5049966;28;20642;-84
2021/05/11 14:02:22;;;;;;;5.73;2.70;;;;;;;18.37;60.09;99926.13;5044585;28;20203;-85
2021/05/11 14:04:48;;;;;;;2.97;2.17;;;;;;;18.37;60.52;99934.22;5045412;28;20220;-85
2021/05/11 14:07:15;;;;;;;3.33;2.00;;;;;;;18.39;60.59;99937.59;5044618;28;20628;-84
2021/05/11 14:09:41;;;;;;;3.37;2.20;;;;;;;18.42;60.79;99934.59;5036176;28;20239;-83
2021/05/11 14:12:07;;;;;;;4.03;2.17;;;;;;;18.42;60.90;99939.13;5043597;28;20675;-84
2021/05/11 14:14:33;;;;;;;3.10;1.97;;;;;;;18.39;60.77;99943.84;5045027;28;20690;-83
2021/05/11 14:17:00;;;;;;;3.90;2.03;;;;;;;18.38;60.75;99952.94;5041374;28;20208;-83
2021/05/11 14:19:28;;;;;;;4.97;2.30;;;;;;;18.36;60.71;99946.00;5046404;28;20228;-84
2021/05/11 14:21:54;;;;;;;4.77;1.80;;;;;;;18.32;60.59;99952.75;5042136;28;20253;-84
2021/05/11 14:24:20;;;;;;;2.63;1.77;;;;;;;18.33;60.78;99970.59;5044591;28;20224;-85
2021/05/11 14:26:47;;;;;;;5.13;2.53;;;;;;;18.32;60.72;99964.38;5039087;28;20244;-83
2021/05/11 14:29:13;;;;;;;3.20;1.90;;;;;;;18.34;60.56;99958.81;5047341;28;20225;-85
2021/05/11 14:31:39;;;;;;;4.77;2.23;;;;;;;18.32;60.30;99960.81;5042358;28;20216;-85
2021/05/11 14:34:08;;;;;;;4.00;1.87;;;;;;;18.30;60.29;99965.53;5045842;28;20223;-85
2021/05/11 14:36:34;;;;;;;4.43;2.00;;;;;;;18.32;60.41;99967.06;5049636;28;20309;-84
2021/05/11 14:39:00;;;;;;;5.50;1.90;;;;;;;18.34;60.49;99961.50;5048697;28;20209;-84
2021/05/11 14:41:26;;;;;;;4.03;1.70;;;;;;;18.35;60.28;99963.19;5047868;28;20315;-86